Latest Weather Observations for Richmond

IDQ60801

Issued at 5:32 pm EST Wednesday 27 July 2016 (issued every 30 minutes, with the page automatically refreshed every 10 minutes)

About weather observations | Map of weather stations | Latest weather observations for QLD | Other Formats
Station Details ID: 030161 Name: RICHMOND AIRPORT Lat: -20.70 Lon: 143.12 Height: 206.3 m
Data from the previous 72 hours. | See also: Recent months at Richmond
Date/Time
EST
Temp
°C
App
Temp
°C
Dew
Point
°C
Rel
Hum
%
Delta-T
°C
Wind Press
QNH
hPa
Press
MSL
hPa
Rain since
9am
mm
Dir  Spd
km/h
Gust
km/h
Spd
kts
Gust
kts
27/05:30pm 21.9 16.9 3.6 30 8.9 ESE 19 26 10 14 1019.8 1019.3 0.0
27/05:00pm 22.3 15.8 2.4 27 9.5 ESE 26 33 14 18 1019.7 1019.2 0.0
27/04:30pm 22.6 16.0 2.1 26 9.7 SE 26 33 14 18 1019.4 1019.0 0.0
27/04:00pm 22.5 15.7 3.1 28 9.4 SE 28 37 15 20 1019.2 1018.8 0.0
27/03:30pm 22.8 15.8 3.9 29 9.3 SE 30 41 16 22 1019.4 1019.0 0.0
27/03:00pm 21.8 14.2 3.0 29 9.0 SE 32 39 17 21 1019.7 1019.2 0.0
27/02:30pm 22.3 14.4 2.4 27 9.5 SSE 33 44 18 24 1019.8 1019.3 0.0
27/02:00pm 22.4 14.5 2.5 27 9.5 SSE 33 44 18 24 1020.0 1019.5 0.0
27/01:30pm 21.6 14.1 3.3 30 8.8 SE 32 43 17 23 1020.3 1019.8 0.0
27/01:00pm 21.3 13.2 3.5 31 8.6 SSE 35 43 19 23 1020.7 1020.3 0.0
27/12:30pm 21.5 13.5 3.7 31 8.6 SSE 35 48 19 26 1021.0 1020.6 0.0
27/12:00pm 21.6 13.7 4.2 32 8.5 SSE 35 44 19 24 1021.4 1021.0 0.0
27/11:30am 21.0 13.1 4.1 33 8.2 SSE 35 43 19 23 1021.8 1021.4 0.0
27/11:00am 19.9 12.3 5.9 40 7.0 SSE 35 44 19 24 1021.9 1021.5 0.0
27/10:30am 19.5 11.9 5.6 40 6.9 SSE 35 46 19 25 1022.2 1021.8 0.0
27/10:00am 18.5 11.3 5.7 43 6.3 SSE 33 41 18 22 1022.2 1021.8 0.0
27/09:30am 17.8 12.0 7.8 52 5.1 SE 28 35 15 19 1022.1 1021.7 0.0
27/09:00am 16.2 9.6 7.7 57 4.3 SSE 32 41 17 22 1022.1 1021.7 0.0
27/08:30am 14.9 9.3 8.6 66 3.2 SSE 28 37 15 20 1021.8 1021.4 0.0
27/08:00am 13.0 9.1 9.3 78 1.9 SSE 20 26 11 14 1021.5 1021.1 0.0
27/07:30am 11.5 8.4 8.9 84 1.3 SE 15 20 8 11 1021.2 1020.8 0.0
27/07:00am 11.0 7.5 8.6 85 1.2 SSE 17 19 9 10 1020.8 1020.4 0.0
27/06:30am 10.9 7.4 8.7 86 1.1 SSE 17 20 9 11 1020.5 1020.1 0.0
27/06:00am 10.1 7.3 8.5 90 0.8 SSE 13 15 7 8 1020.2 1019.7 0.0
27/05:30am 10.1 6.9 8.4 89 0.8 SSE 15 17 8 9 1019.7 1019.2 0.0
27/05:00am 10.7 8.3 8.6 87 1.0 SSE 11 13 6 7 1019.4 1019.0 0.0
27/04:30am 10.8 8.0 8.7 87 1.0 S 13 17 7 9 1019.1 1018.7 0.0
27/04:00am 11.6 9.9 8.3 80 1.6 ESE 7 9 4 5 1018.7 1018.3 0.0
27/03:30am 11.7 10.0 8.4 80 1.6 ESE 7 7 4 4 1018.9 1018.5 0.0
27/03:00am 12.8 10.8 8.7 76 2.1 SE 9 11 5 6 1019.0 1018.6 0.0
27/02:30am 13.6 10.4 8.4 71 2.6 ESE 15 19 8 10 1019.0 1018.6 0.0
27/02:00am 14.1 11.3 8.7 70 2.7 ESE 13 17 7 9 1019.1 1018.7 0.0
27/01:30am 14.1 11.4 8.9 71 2.7 SE 13 17 7 9 1019.3 1018.9 0.0
27/01:00am 14.4 11.7 9.0 70 2.8 SE 13 17 7 9 1019.3 1018.9 0.0
27/12:30am 14.6 11.9 8.8 68 3.0 SE 13 17 7 9 1019.4 1019.0 0.0
27/12:00am 14.9 11.9 9.1 68 3.0 SE 15 19 8 10 1019.4 1019.0 0.0
 
Date/Time
EST
Temp
°C
App
Temp
°C
Dew
Point
°C
Rel
Hum
%
Delta-T
°C
Wind Press
QNH
hPa
Press
MSL
hPa
Rain since
9am
mm
Dir  Spd
km/h
Gust
km/h
Spd
kts
Gust
kts
26/11:30pm 14.6 11.6 9.4 71 2.7 SE 15 17 8 9 1019.7 1019.2 0.0
26/11:00pm 14.2 11.6 9.4 73 2.5 SE 13 15 7 8 1019.7 1019.2 0.0
26/10:30pm 14.7 11.7 9.3 70 2.8 SSE 15 17 8 9 1019.4 1019.0 0.0
26/10:00pm 15.2 12.6 9.3 68 3.1 SSE 13 15 7 8 1019.3 1018.9 0.0
26/09:30pm 15.9 13.3 9.3 65 3.4 SSE 13 17 7 9 1019.1 1018.7 0.0
26/09:00pm 17.0 13.7 9.4 61 4.0 SSE 17 20 9 11 1018.8 1018.4 0.0
26/08:30pm 17.8 13.6 9.7 59 4.3 S 22 28 12 15 1018.5 1018.1 0.0
26/08:00pm 18.6 14.1 9.9 57 4.7 S 24 30 13 16 1018.1 1017.7 0.0
26/07:30pm 19.5 13.9 10.0 54 5.1 S 30 35 16 19 1017.5 1017.1 0.0
26/07:00pm 20.5 15.5 9.7 50 5.8 SSW 26 33 14 18 1016.9 1016.5 0.0
26/06:30pm 21.5 17.1 9.1 45 6.7 SSW 22 28 12 15 1016.5 1016.1 0.0
26/06:00pm 22.8 17.9 8.5 40 7.7 SSW 24 30 13 16 1016.0 1015.5 0.0
26/05:30pm 24.2 18.8 8.2 36 8.6 SSW 26 32 14 17 1015.8 1015.3 0.0
26/05:00pm 25.3 19.9 7.9 33 9.3 SSW 26 33 14 18 1015.4 1014.9 0.0
26/04:30pm 26.2 21.2 8.2 32 9.8 SW 24 33 13 18 1015.1 1014.6 0.0
26/04:00pm 26.5 23.5 7.5 30 10.2 SSW 13 19 7 10 1015.0 1014.5 0.0
26/03:30pm 26.8 24.8 8.7 32 9.9 S 9 17 5 9 1015.0 1014.5 0.0
26/03:00pm 26.0 24.8 8.0 32 9.7 SSE 4 15 2 8 1015.0 1014.5 0.0
26/02:30pm 25.7 22.2 7.3 31 9.8 S 15 20 8 11 1015.3 1014.8 0.0
26/02:00pm 25.4 23.0 7.1 31 9.7 SSE 9 17 5 9 1015.6 1015.1 0.0
26/01:30pm 25.1 22.9 7.7 33 9.3 SE 9 15 5 8 1016.0 1015.5 0.0
26/01:00pm 24.1 21.2 6.4 32 9.2 ESE 11 17 6 9 1016.5 1016.1 0.0
26/12:30pm 23.9 20.8 7.1 34 8.8 SE 13 20 7 11 1017.1 1016.7 0.0
26/12:00pm 22.9 20.0 6.6 35 8.4 SE 11 17 6 9 1017.6 1017.2 0.0
26/11:30am 21.8 17.3 6.1 36 8.0 ESE 19 22 10 12 1018.1 1017.7 0.0
26/11:00am 20.9 16.2 6.1 38 7.5 ESE 20 28 11 15 1018.4 1018.0 0.0
26/10:30am 19.8 14.8 6.5 42 6.7 SE 22 28 12 15 1018.7 1018.3 0.0
26/10:00am 18.6 13.8 7.4 48 5.7 ESE 22 30 12 16 1019.2 1018.8 0.0
26/09:30am 16.7 11.8 6.8 52 4.9 SE 22 28 12 15 1019.3 1018.9 0.0
26/09:00am 15.5 11.3 7.3 58 4.1 SE 19 26 10 14 1019.4 1019.0 0.0
26/08:30am 13.4 9.9 7.0 65 3.1 SSE 15 20 8 11 1019.4 1019.0 0.0
26/08:00am 12.5 9.4 7.2 70 2.6 SE 13 17 7 9 1019.2 1018.8 0.0
26/07:30am 11.0 8.3 7.3 78 1.8 ESE 11 13 6 7 1018.7 1018.3 0.0
26/07:00am 10.3 6.7 6.8 79 1.7 SE 15 17 8 9 1018.5 1018.1 0.0
26/06:30am 10.4 7.2 6.9 79 1.7 ESE 13 15 7 8 1018.2 1017.8 0.0
26/06:00am 11.0 7.9 7.3 78 1.8 ESE 13 15 7 8 1017.8 1017.4 0.0
26/05:30am 10.0 7.2 6.9 81 1.5 SE 11 13 6 7 1017.6 1017.2 0.0
26/05:00am 11.1 8.0 7.2 77 1.9 ESE 13 13 7 7 1017.3 1016.9 0.0
26/04:30am 11.1 8.4 7.4 78 1.8 ESE 11 11 6 6 1017.4 1017.0 0.0
26/04:00am 11.3 8.3 7.6 78 1.8 ESE 13 15 7 8 1017.3 1016.9 0.0
26/03:30am 11.4 8.5 8.1 80 1.6 ESE 13 15 7 8 1017.4 1017.0 0.0
26/03:00am 10.6 8.4 8.0 84 1.3 SE 9 11 5 6 1017.5 1017.1 0.0
26/02:30am 11.1 8.5 7.8 80 1.6 SE 11 13 6 7 1017.8 1017.4 0.0
26/02:00am 12.1 9.2 8.0 76 2.0 ESE 13 13 7 7 1018.1 1017.7 0.0
26/01:30am 12.7 9.8 8.2 74 2.2 ESE 13 17 7 9 1018.4 1018.0 0.0
26/01:00am 13.3 10.8 8.0 70 2.6 E 11 13 6 7 1018.7 1018.3 0.0
26/12:30am 13.5 10.6 8.1 70 2.7 SE 13 17 7 9 1018.6 1018.2 0.0
26/12:00am 13.7 10.4 8.1 69 2.8 SSE 15 17 8 9 1018.5 1018.1 0.0
 
Date/Time
EST
Temp
°C
App
Temp
°C
Dew
Point
°C
Rel
Hum
%
Delta-T
°C
Wind Press
QNH
hPa
Press
MSL
hPa
Rain since
9am
mm
Dir  Spd
km/h
Gust
km/h
Spd
kts
Gust
kts
25/11:30pm 13.8 10.9 8.2 69 2.8 SE 13 17 7 9 1018.5 1018.1 0.0
25/11:00pm 14.2 11.0 8.6 69 2.8 SE 15 19 8 10 1018.8 1018.4 0.0
25/10:30pm 14.6 11.4 8.5 67 3.1 SSE 15 17 8 9 1018.7 1018.3 0.0
25/10:00pm 15.0 11.5 8.7 66 3.2 SSE 17 20 9 11 1018.6 1018.2 0.0
25/09:30pm 15.1 11.7 9.0 67 3.1 SSE 17 19 9 10 1018.6 1018.2 0.0
25/09:00pm 15.6 11.7 8.8 64 3.5 SSE 19 22 10 12 1018.6 1018.2 0.0
25/08:30pm 16.4 12.0 8.9 61 3.9 SSE 22 26 12 14 1018.4 1018.0 0.0
25/08:00pm 16.9 12.9 9.1 60 4.1 SSE 20 24 11 13 1018.1 1017.7 0.0
25/07:30pm 17.5 13.7 9.2 58 4.4 SSE 19 24 10 13 1017.9 1017.5 0.0
25/07:00pm 17.8 14.7 8.9 56 4.7 SSE 15 19 8 10 1017.6 1017.2 0.0
25/06:30pm 19.2 15.6 8.2 49 5.7 SSE 17 19 9 10 1017.3 1016.9 0.0
25/06:00pm 21.2 16.8 7.4 41 7.2 SSE 20 26 11 14 1017.1 1016.7 0.0
25/05:30pm 23.2 17.7 6.1 33 8.8 SE 24 32 13 17 1016.8 1016.4 0.0
25/05:00pm 23.9 18.1 6.2 32 9.1 SE 26 32 14 17 1016.7 1016.3 0.0
25/04:30pm 24.3 18.5 6.1 31 9.4 SE 26 33 14 18 1016.5 1016.1 0.0
25/04:00pm 24.7 19.4 6.9 32 9.4 SSE 24 33 13 18 1016.5 1016.1 0.0
25/03:30pm 24.8 19.5 7.0 32 9.4 SSE 24 35 13 19 1016.4 1016.0 0.0
25/03:00pm 24.4 18.9 5.7 30 9.6 SE 24 33 13 18 1016.5 1016.1 0.0
25/02:30pm 24.3 19.0 7.0 33 9.1 SE 24 35 13 19 1016.7 1016.3 0.0
25/02:00pm 23.7 18.0 6.5 33 8.9 SE 26 35 14 19 1017.2 1016.8 0.0
25/01:30pm 23.7 17.8 6.0 32 9.1 SE 26 32 14 17 1017.5 1017.1 0.0
25/01:00pm 23.2 17.4 6.1 33 8.8 SE 26 39 14 21 1018.0 1017.6 0.0
25/12:30pm 22.1 15.7 5.1 33 8.5 SE 28 41 15 22 1018.6 1018.2 0.0
25/12:00pm 21.9 15.1 5.3 34 8.3 SE 30 41 16 22 1019.0 1018.6 0.0
25/11:30am 21.3 15.0 7.5 41 7.2 SE 30 39 16 21 1019.4 1019.0 0.0
25/11:00am 20.6 14.3 7.6 43 6.7 ESE 30 35 16 19 1019.8 1019.3 0.0
25/10:30am 19.5 13.1 6.9 44 6.4 SE 30 35 16 19 1020.2 1019.7 0.0
25/10:00am 18.8 13.2 7.3 47 5.9 ESE 26 35 14 19 1020.3 1019.8 0.0
25/09:30am 17.5 10.7 6.7 49 5.4 ESE 32 41 17 22 1020.3 1019.8 0.0
25/09:00am 16.7 11.6 7.6 55 4.6 ESE 24 32 13 17 1020.3 1019.8 0.0
25/08:30am 15.8 10.6 7.1 56 4.3 ESE 24 33 13 18 1020.2 1019.7 0.0
25/08:00am 14.6 10.8 7.6 63 3.5 ESE 17 22 9 12 1020.2 1019.7 0.0
25/07:30am 13.3 10.1 8.4 72 2.5 ESE 15 19 8 10 1020.0 1019.5 0.0
25/07:00am 12.5 9.7 8.4 76 2.0 ESE 13 17 7 9 1019.6 1019.1 0.0
25/06:30am 12.9 9.7 8.6 75 2.2 ESE 15 17 8 9 1019.1 1018.7 0.0
25/06:00am 13.0 9.9 8.7 75 2.2 ESE 15 17 8 9 1018.9 1018.5 0.0
25/05:30am 12.9 10.2 9.0 77 2.0 ESE 13 15 7 8 1018.6 1018.2 0.0
25/05:00am 12.3 10.3 8.8 79 1.8 ESE 9 11 5 6 1018.3 1017.9 0.0
25/04:30am 13.2 11.2 8.7 74 2.3 ESE 9 11 5 6 1018.2 1017.8 0.0
25/04:00am 13.6 11.1 8.4 71 2.6 ESE 11 15 6 8 1018.0 1017.6 0.0
25/03:30am 14.3 11.4 8.3 67 3.0 ESE 13 17 7 9 1018.2 1017.8 0.0
25/03:00am 15.0 11.7 8.0 63 3.5 ESE 15 20 8 11 1018.3 1017.9 0.0
25/02:30am 15.1 11.9 8.6 65 3.3 SE 15 17 8 9 1018.3 1017.9 0.0
25/02:00am 15.9 12.7 8.6 62 3.7 ESE 15 19 8 10 1018.4 1018.0 0.0
25/01:30am 16.3 12.9 9.0 62 3.8 SE 17 20 9 11 1018.4 1018.0 0.0
25/01:00am 16.6 13.4 9.8 64 3.6 SE 17 20 9 11 1018.2 1017.8 0.0
25/12:30am 17.2 13.7 10.3 64 3.7 SE 19 26 10 14 1018.0 1017.6 0.0
25/12:00am 17.4 14.6 11.2 67 3.4 SE 17 22 9 12 1017.9 1017.5 0.0
 
Date/Time
EST
Temp
°C
App
Temp
°C
Dew
Point
°C
Rel
Hum
%
Delta-T
°C
Wind Press
QNH
hPa
Press
MSL
hPa
Rain since
9am
mm
Dir  Spd
km/h
Gust
km/h
Spd
kts
Gust
kts
24/11:30pm 17.7 15.0 11.7 68 3.3 SE 17 20 9 11 1017.8 1017.4 0.0
24/11:00pm 18.2 15.3 12.4 69 3.2 SE 19 22 10 12 1017.9 1017.5 0.0
24/10:30pm 18.1 15.3 12.5 70 3.1 SSE 19 22 10 12 1017.9 1017.5 0.0
24/10:00pm 18.4 15.4 12.6 69 3.3 SSE 20 24 11 13 1017.6 1017.2 0.0
24/09:30pm 19.1 15.5 13.1 68 3.4 SSE 24 28 13 15 1017.4 1017.0 0.0
24/09:00pm 20.0 16.2 13.5 66 3.7 S 26 32 14 17 1017.1 1016.7 0.0
24/08:30pm 20.6 17.2 13.8 65 4.0 S 24 28 13 15 1016.8 1016.4 0.0
24/08:00pm 21.1 18.4 14.5 66 3.9 S 22 28 12 15 1016.5 1016.1 0.0
24/07:30pm 21.2 19.3 15.3 69 3.5 S 19 20 10 11 1016.0 1015.5 0.0
24/07:00pm 21.1 19.7 14.5 66 3.9 S 15 15 8 8 1015.7 1015.2 0.0
24/06:30pm 22.8 21.6 14.1 58 5.1 S 13 17 7 9 1015.4 1014.9 0.0
24/06:00pm 24.6 22.5 13.5 50 6.5 S 17 19 9 10 1015.0 1014.5 0.0

Other Formats:

Comma delimited format used in spreadsheet applications
http://www.bom.gov.au/fwo/IDQ60801/IDQ60801.94341.axf

JavaScript Object Notation format (JSON) in row-major order
http://www.bom.gov.au/fwo/IDQ60801/IDQ60801.94341.json